Time;durP1;ratioP1;P1;durP2;ratioP2;P2;SDS_P1;SDS_P2;PMS_P1;PMS_P2;Temp;Humidity;BMP_temperature;BMP_pressure;BME280_temperature;BME280_humidity;BME280_pressure;Samples;Min_cycle;Max_cycle;Signal;HPM_P1;HPM_P2
2023/06/07 00:01:54;;;;;;;12.45;10.98;;;;;;;;;;10132232;28;20041;-65
2023/06/07 00:06:47;;;;;;;12.68;10.57;;;;;;;;;;10144849;28;20078;-64
2023/06/07 00:11:40;;;;;;;14.57;10.82;;;;;;;;;;10121799;28;20048;-64
2023/06/07 00:16:34;;;;;;;13.50;9.70;;;;;;;;;;10111056;28;20065;-65
2023/06/07 00:21:30;;;;;;;11.38;10.27;;;;;;;;;;10110848;28;20080;-65
2023/06/07 00:26:24;;;;;;;14.00;9.65;;;;;;;;;;10121419;28;20063;-64
2023/06/07 00:31:17;;;;;;;12.52;10.73;;;;;;;;;;10110066;28;20053;-64
2023/06/07 00:36:10;;;;;;;11.98;10.73;;;;;;;;;;10133623;28;20053;-64
2023/06/07 00:41:03;;;;;;;14.70;10.38;;;;;;;;;;10129395;28;20043;-65
2023/06/07 00:45:58;;;;;;;20.10;9.73;;;;;;;;;;10127370;28;20079;-65
2023/06/07 00:50:53;;;;;;;11.38;10.25;;;;;;;;;;10112396;28;20056;-64
2023/06/07 00:55:47;;;;;;;12.20;11.00;;;;;;;;;;10145300;28;20044;-64
2023/06/07 01:00:42;;;;;;;16.98;11.15;;;;;;;;;;10145627;28;20147;-65
2023/06/07 01:05:35;;;;;;;12.52;11.25;;;;;;;;;;10143758;28;20052;-65
2023/06/07 01:10:29;;;;;;;12.57;11.15;;;;;;;;;;10137959;28;20045;-65
2023/06/07 01:15:21;;;;;;;15.77;11.18;;;;;;;;;;10143985;28;20496;-65
2023/06/07 01:20:20;;;;;;;11.82;10.70;;;;;;;;;;10122559;28;20102;-64
2023/06/07 01:25:12;;;;;;;12.50;11.32;;;;;;;;;;10130723;28;20616;-65
2023/06/07 01:30:06;;;;;;;11.57;10.48;;;;;;;;;;10120186;28;20392;-65
2023/06/07 01:35:01;;;;;;;12.88;11.68;;;;;;;;;;10159258;28;20072;-65
2023/06/07 01:39:55;;;;;;;13.77;12.38;;;;;;;;;;10130469;28;20376;-64
2023/06/07 01:44:49;;;;;;;12.75;11.55;;;;;;;;;;10106410;28;20055;-64
2023/06/07 01:49:45;;;;;;;13.60;12.20;;;;;;;;;;10120832;28;20136;-65
2023/06/07 01:54:41;;;;;;;13.07;11.77;;;;;;;;;;10142216;28;20127;-65
2023/06/07 02:00:00;;;;;;;15.27;12.90;;;;;;;;;;10116574;28;20049;-64
2023/06/07 02:05:09;;;;;;;16.08;13.25;;;;;;;;;;10104720;28;20049;-64
2023/06/07 02:10:05;;;;;;;15.32;13.57;;;;;;;;;;10104901;28;20071;-65
2023/06/07 02:15:01;;;;;;;15.40;12.95;;;;;;;;;;10129601;28;20049;-65
2023/06/07 02:19:55;;;;;;;14.43;13.02;;;;;;;;;;10131293;28;20045;-65
2023/06/07 02:24:48;;;;;;;15.23;12.82;;;;;;;;;;10130406;28;20535;-65
2023/06/07 02:29:41;;;;;;;19.42;13.38;;;;;;;;;;10141841;28;20067;-65
2023/06/07 02:34:36;;;;;;;14.98;13.38;;;;;;;;;;10132604;28;20415;-64
2023/06/07 02:39:30;;;;;;;16.40;14.13;;;;;;;;;;10146277;28;20136;-65
2023/06/07 02:44:24;;;;;;;16.83;14.82;;;;;;;;;;10144665;28;20056;-64
2023/06/07 02:49:18;;;;;;;16.23;14.23;;;;;;;;;;10146369;28;20286;-65
2023/06/07 02:54:15;;;;;;;14.48;12.98;;;;;;;;;;10128523;28;20146;-64
2023/06/07 02:59:09;;;;;;;16.10;13.93;;;;;;;;;;10128050;28;20057;-65
2023/06/07 03:04:06;;;;;;;15.35;13.68;;;;;;;;;;10147033;28;20045;-65
2023/06/07 03:08:59;;;;;;;19.20;13.15;;;;;;;;;;10135634;28;20074;-65
2023/06/07 03:13:55;;;;;;;16.23;14.40;;;;;;;;;;10121647;28;20079;-65
2023/06/07 03:18:53;;;;;;;16.67;13.75;;;;;;;;;;10136174;28;20080;-64
2023/06/07 03:23:49;;;;;;;22.00;16.80;;;;;;;;;;10110109;28;20565;-64
2023/06/07 03:28:42;;;;;;;19.73;15.60;;;;;;;;;;10119333;28;20040;-65
2023/06/07 03:33:35;;;;;;;25.08;14.30;;;;;;;;;;10139225;28;20049;-64
2023/06/07 03:38:29;;;;;;;36.53;15.70;;;;;;;;;;10134925;28;20044;-65
2023/06/07 03:43:23;;;;;;;33.30;16.60;;;;;;;;;;10146913;28;20083;-64
2023/06/07 03:48:16;;;;;;;39.42;17.90;;;;;;;;;;10127890;28;20549;-64
2023/06/07 03:53:11;;;;;;;43.08;19.90;;;;;;;;;;10134652;28;20147;-65
2023/06/07 03:58:07;;;;;;;29.40;20.20;;;;;;;;;;10133763;28;20061;-65
2023/06/07 04:03:02;;;;;;;19.33;15.23;;;;;;;;;;10138773;28;20513;-65
2023/06/07 04:07:59;;;;;;;18.80;14.77;;;;;;;;;;10134750;28;20049;-65
2023/06/07 04:12:53;;;;;;;15.70;13.75;;;;;;;;;;10145395;28;20055;-64
2023/06/07 04:17:47;;;;;;;19.00;14.32;;;;;;;;;;10146366;28;20060;-65
2023/06/07 04:22:42;;;;;;;13.95;12.48;;;;;;;;;;10113907;28;20077;-65
2023/06/07 04:27:38;;;;;;;14.20;11.82;;;;;;;;;;10144889;28;20049;-65
2023/06/07 04:32:33;;;;;;;17.35;12.32;;;;;;;;;;10129576;28;20393;-64
2023/06/07 04:37:31;;;;;;;12.63;11.32;;;;;;;;;;10131798;28;20045;-65
2023/06/07 04:42:27;;;;;;;13.65;12.25;;;;;;;;;;10143580;28;20140;-64
2023/06/07 04:47:24;;;;;;;15.30;11.88;;;;;;;;;;10137871;28;20470;-65
2023/06/07 04:52:20;;;;;;;15.02;13.02;;;;;;;;;;10128093;28;20123;-63
2023/06/07 04:57:22;;;;;;;13.90;12.40;;;;;;;;;;10145129;28;20056;-64
2023/06/07 05:02:16;;;;;;;13.52;10.10;;;;;;;;;;10145797;28;20044;-66
2023/06/07 05:07:11;;;;;;;13.05;11.75;;;;;;;;;;10136742;28;20106;-66
2023/06/07 05:12:09;;;;;;;15.25;11.52;;;;;;;;;;10130344;28;20079;-66
2023/06/07 05:17:05;;;;;;;12.40;9.68;;;;;;;;;;10112857;28;20165;-65
2023/06/07 05:22:00;;;;;;;16.65;9.60;;;;;;;;;;10104006;28;20545;-65
2023/06/07 05:26:55;;;;;;;11.00;8.82;;;;;;;;;;10131263;28;20040;-65
2023/06/07 05:31:48;;;;;;;13.20;8.85;;;;;;;;;;10118109;28;20040;-65
2023/06/07 05:36:42;;;;;;;13.27;9.40;;;;;;;;;;10108790;28;20064;-65
2023/06/07 05:41:36;;;;;;;11.60;10.50;;;;;;;;;;10111366;28;20102;-65
2023/06/07 05:46:29;;;;;;;12.05;10.85;;;;;;;;;;10130078;28;20056;-65
2023/06/07 05:51:22;;;;;;;20.58;12.75;;;;;;;;;;10126023;28;20079;-65
2023/06/07 05:56:16;;;;;;;13.90;12.13;;;;;;;;;;10136787;28;20092;-65
2023/06/07 06:01:13;;;;;;;22.15;13.25;;;;;;;;;;10125384;28;20254;-65
2023/06/07 06:06:15;;;;;;;16.85;12.38;;;;;;;;;;10129274;28;20535;-65
2023/06/07 06:11:11;;;;;;;13.90;11.88;;;;;;;;;;10144423;28;20048;-65
2023/06/07 06:16:04;;;;;;;13.02;10.95;;;;;;;;;;10119306;28;20114;-65
2023/06/07 06:20:58;;;;;;;14.07;12.68;;;;;;;;;;10107120;28;20396;-66
2023/06/07 06:25:52;;;;;;;17.05;12.70;;;;;;;;;;10096634;28;20119;-66
2023/06/07 06:30:45;;;;;;;14.43;12.95;;;;;;;;;;10105671;28;20063;-65
2023/06/07 06:35:39;;;;;;;18.75;15.10;;;;;;;;;;10128687;28;20068;-66
2023/06/07 06:40:33;;;;;;;19.60;15.23;;;;;;;;;;10134767;28;20049;-65
2023/06/07 06:45:25;;;;;;;20.27;16.92;;;;;;;;;;10123726;28;20083;-65
2023/06/07 06:50:19;;;;;;;20.33;15.52;;;;;;;;;;10121521;28;20056;-67
2023/06/07 06:55:16;;;;;;;20.15;16.38;;;;;;;;;;10122909;28;20449;-66
2023/06/07 07:00:12;;;;;;;22.00;17.33;;;;;;;;;;10135329;28;20048;-67
2023/06/07 07:05:07;;;;;;;20.92;17.80;;;;;;;;;;10113688;28;20075;-67
2023/06/07 07:10:00;;;;;;;25.40;19.48;;;;;;;;;;10108903;28;20407;-65
2023/06/07 07:14:55;;;;;;;26.13;19.52;;;;;;;;;;10108660;28;20073;-66
2023/06/07 07:19:49;;;;;;;22.73;18.73;;;;;;;;;;10107478;28;20052;-66
2023/06/07 07:24:43;;;;;;;22.92;18.48;;;;;;;;;;10101267;28;20084;-66
2023/06/07 07:29:37;;;;;;;24.85;18.38;;;;;;;;;;10116004;28;20048;-66
2023/06/07 07:34:31;;;;;;;17.48;14.27;;;;;;;;;;10107315;28;20067;-68
2023/06/07 07:39:26;;;;;;;21.98;15.68;;;;;;;;;;10116257;28;20059;-67
2023/06/07 07:44:18;;;;;;;15.02;11.02;;;;;;;;;;10120228;28;20051;-66
2023/06/07 07:49:14;;;;;;;13.90;10.50;;;;;;;;;;10118737;28;20155;-66
2023/06/07 07:54:08;;;;;;;10.40;8.48;;;;;;;;;;10127227;28;20062;-65
2023/06/07 07:59:01;;;;;;;15.98;8.57;;;;;;;;;;10108936;28;20136;-66
2023/06/07 08:03:55;;;;;;;10.02;8.98;;;;;;;;;;10107035;28;20087;-65
2023/06/07 08:08:49;;;;;;;9.52;8.63;;;;;;;;;;10123448;28;20059;-65
2023/06/07 08:13:44;;;;;;;8.23;7.38;;;;;;;;;;10117635;28;20041;-66
2023/06/07 08:18:38;;;;;;;8.68;7.63;;;;;;;;;;10104326;28;20056;-67
2023/06/07 08:23:31;;;;;;;9.80;7.03;;;;;;;;;;10100475;28;20053;-67
2023/06/07 08:28:25;;;;;;;9.10;7.25;;;;;;;;;;10097867;28;20090;-66
2023/06/07 08:33:19;;;;;;;8.20;7.35;;;;;;;;;;10092081;28;20516;-68
2023/06/07 08:38:14;;;;;;;9.10;7.20;;;;;;;;;;10114570;28;20060;-66
2023/06/07 08:43:07;;;;;;;12.75;8.23;;;;;;;;;;10084895;28;20144;-67
2023/06/07 08:48:06;;;;;;;7.47;6.35;;;;;;;;;;10101229;28;20051;-67
2023/06/07 08:53:06;;;;;;;8.00;7.20;;;;;;;;;;10111406;28;20049;-67
2023/06/07 08:57:59;;;;;;;10.63;6.63;;;;;;;;;;10100684;28;20061;-67
2023/06/07 09:02:53;;;;;;;8.82;7.60;;;;;;;;;;10087543;28;20047;-67
2023/06/07 09:07:47;;;;;;;10.80;6.65;;;;;;;;;;10133207;28;20174;-67
2023/06/07 09:12:40;;;;;;;10.10;5.43;;;;;;;;;;10130325;28;20045;-70
2023/06/07 09:17:52;;;;;;;6.53;5.53;;;;;;;;;;10131432;28;20058;-70
2023/06/07 09:23:22;;;;;;;6.80;6.10;;;;;;;;;;10135449;28;20064;-71
2023/06/07 09:28:15;;;;;;;6.63;5.78;;;;;;;;;;10142052;28;20052;-71
2023/06/07 09:33:09;;;;;;;10.35;6.80;;;;;;;;;;10141742;28;20048;-71
2023/06/07 09:38:04;;;;;;;7.60;6.45;;;;;;;;;;10143152;28;20053;-71
2023/06/07 09:42:59;;;;;;;6.43;5.82;;;;;;;;;;10110563;28;20091;-72
2023/06/07 09:48:04;;;;;;;;;;;;;;;;;;10138789;28;20060;-71
2023/06/07 09:52:58;;;;;;;8.80;6.05;;;;;;;;;;10129423;28;19947;-71
2023/06/07 09:57:51;;;;;;;6.68;5.85;;;;;;;;;;10117263;28;20102;-72
2023/06/07 10:02:47;;;;;;;8.43;5.93;;;;;;;;;;10118077;28;20070;-70
2023/06/07 10:07:43;;;;;;;6.55;4.80;;;;;;;;;;10116678;28;20075;-70
2023/06/07 10:12:38;;;;;;;;;;;;;;;;;;10116563;28;20496;-69
2023/06/07 10:17:40;;;;;;;7.43;6.10;;;;;;;;;;10130200;28;19921;-75
2023/06/07 10:22:36;;;;;;;6.78;6.13;;;;;;;;;;10103979;28;20072;-77
2023/06/07 10:27:58;;;;;;;8.70;6.47;;;;;;;;;;10118127;28;20415;-77
2023/06/07 10:32:52;;;;;;;10.23;9.13;;;;;;;;;;10120486;28;20047;-78
2023/06/07 10:37:50;;;;;;;8.65;7.75;;;;;;;;;;10147356;28;20120;-78
2023/06/07 10:42:44;;;;;;;8.32;6.85;;;;;;;;;;10139724;28;20093;-78
2023/06/07 10:47:38;;;;;;;10.63;7.00;;;;;;;;;;10125710;28;20057;-77
2023/06/07 10:52:31;;;;;;;16.23;7.55;;;;;;;;;;10118836;28;20036;-79
2023/06/07 10:57:31;;;;;;;10.07;7.50;;;;;;;;;;10131093;28;20396;-79
2023/06/07 11:02:26;;;;;;;13.13;7.45;;;;;;;;;;10124308;28;20094;-79
2023/06/07 11:07:30;;;;;;;8.10;7.22;;;;;;;;;;10140874;28;20122;-70
2023/06/07 11:12:43;;;;;;;7.00;6.30;;;;;;;;;;10119476;28;20124;-68
2023/06/07 11:17:50;;;;;;;8.52;6.90;;;;;;;;;;10110929;28;20512;-70
2023/06/07 11:22:48;;;;;;;8.02;7.22;;;;;;;;;;10125860;28;20055;-69
2023/06/07 11:27:41;;;;;;;8.65;5.97;;;;;;;;;;10108147;28;20048;-77
2023/06/07 11:32:38;;;;;;;7.13;6.07;;;;;;;;;;10122681;28;20053;-67
2023/06/07 11:37:32;;;;;;;7.13;4.93;;;;;;;;;;10094444;28;20392;-66
2023/06/07 11:42:25;;;;;;;6.07;5.35;;;;;;;;;;10110519;28;20056;-66
2023/06/07 11:47:20;;;;;;;8.80;5.80;;;;;;;;;;10105285;28;20408;-67
2023/06/07 11:52:15;;;;;;;6.13;4.78;;;;;;;;;;10104819;28;20049;-64
2023/06/07 11:57:09;;;;;;;11.13;4.10;;;;;;;;;;10115905;28;20516;-65
2023/06/07 12:02:04;;;;;;;5.60;4.23;;;;;;;;;;10107540;28;20087;-65
2023/06/07 12:06:57;;;;;;;5.00;4.10;;;;;;;;;;10103351;28;20286;-66
2023/06/07 12:11:53;;;;;;;5.35;3.45;;;;;;;;;;10109481;28;20045;-65
2023/06/07 12:16:49;;;;;;;4.05;3.40;;;;;;;;;;10106185;28;20515;-65
2023/06/07 12:21:43;;;;;;;5.30;4.03;;;;;;;;;;10098532;28;20416;-65
2023/06/07 12:26:37;;;;;;;6.38;4.35;;;;;;;;;;10109672;28;20057;-66
2023/06/07 12:31:31;;;;;;;4.70;3.20;;;;;;;;;;10110408;28;20053;-65
2023/06/07 12:36:27;;;;;;;4.38;3.20;;;;;;;;;;10109702;28;20052;-65
2023/06/07 12:41:27;;;;;;;9.75;4.53;;;;;;;;;;10102482;28;20084;-67
2023/06/07 12:46:21;;;;;;;6.03;3.97;;;;;;;;;;10109619;28;20419;-67
2023/06/07 12:51:16;;;;;;;5.85;4.40;;;;;;;;;;10139806;28;20084;-66
2023/06/07 12:56:10;;;;;;;6.57;4.05;;;;;;;;;;10119995;28;20061;-66
2023/06/07 13:01:03;;;;;;;4.90;4.40;;;;;;;;;;10119730;28;20049;-66
2023/06/07 13:05:58;;;;;;;4.60;3.85;;;;;;;;;;10102006;28;20503;-65
2023/06/07 13:10:52;;;;;;;13.15;5.20;;;;;;;;;;10103322;28;20048;-66
2023/06/07 13:15:46;;;;;;;6.30;4.30;;;;;;;;;;10130234;28;20140;-66
2023/06/07 13:20:39;;;;;;;12.52;4.45;;;;;;;;;;10118966;28;20037;-70
2023/06/07 13:25:33;;;;;;;11.95;4.13;;;;;;;;;;10133276;28;20049;-70
2023/06/07 13:30:26;;;;;;;5.07;3.03;;;;;;;;;;10140899;28;20567;-70
2023/06/07 13:35:19;;;;;;;10.95;4.28;;;;;;;;;;10128535;28;20106;-70
2023/06/07 13:40:13;;;;;;;8.73;3.03;;;;;;;;;;10128114;28;20084;-70
2023/06/07 13:45:08;;;;;;;7.10;3.83;;;;;;;;;;10132781;28;20044;-76
2023/06/07 13:50:02;;;;;;;6.85;2.90;;;;;;;;;;10131648;28;20051;-71
2023/06/07 13:54:56;;;;;;;7.03;4.53;;;;;;;;;;10110723;28;20175;-70
2023/06/07 13:59:50;;;;;;;25.17;7.50;;;;;;;;;;10132578;28;20110;-71
2023/06/07 14:04:46;;;;;;;16.80;8.85;;;;;;;;;;10118291;28;20482;-71
2023/06/07 14:09:40;;;;;;;12.50;11.25;;;;;;;;;;10130409;28;20053;-71
2023/06/07 14:14:33;;;;;;;10.38;8.43;;;;;;;;;;10104174;28;20052;-72
2023/06/07 14:19:26;;;;;;;11.93;8.77;;;;;;;;;;10096526;28;20060;-70
2023/06/07 14:24:21;;;;;;;10.70;9.70;;;;;;;;;;10115046;28;20132;-70
2023/06/07 14:29:15;;;;;;;9.32;8.02;;;;;;;;;;10138385;28;20069;-70
2023/06/07 14:34:09;;;;;;;8.35;7.65;;;;;;;;;;10127035;28;20052;-70
2023/06/07 14:39:03;;;;;;;9.18;8.30;;;;;;;;;;10142711;28;20045;-70
2023/06/07 14:43:55;;;;;;;7.82;7.10;;;;;;;;;;10126285;28;20102;-70
2023/06/07 14:48:50;;;;;;;7.38;6.78;;;;;;;;;;10106798;28;20554;-70
2023/06/07 14:53:44;;;;;;;10.27;9.30;;;;;;;;;;10110018;28;20049;-67
2023/06/07 14:58:38;;;;;;;7.00;6.32;;;;;;;;;;10103923;28;20462;-71
2023/06/07 15:03:31;;;;;;;7.40;6.03;;;;;;;;;;10105018;28;21678;-67
2023/06/07 15:08:25;;;;;;;8.25;5.30;;;;;;;;;;10106101;28;20048;-65
2023/06/07 15:13:18;;;;;;;6.68;6.07;;;;;;;;;;10118724;28;20144;-67
2023/06/07 15:18:11;;;;;;;5.28;4.20;;;;;;;;;;10089247;28;20041;-67
2023/06/07 15:23:04;;;;;;;6.97;4.10;;;;;;;;;;10123252;28;20045;-68
2023/06/07 15:27:59;;;;;;;5.07;4.57;;;;;;;;;;10119387;28;20053;-68
2023/06/07 15:32:53;;;;;;;4.18;3.80;;;;;;;;;;10115808;28;20048;-68
2023/06/07 15:37:46;;;;;;;4.03;3.63;;;;;;;;;;10104830;28;20072;-68
2023/06/07 15:42:40;;;;;;;3.28;2.92;;;;;;;;;;10109279;28;20041;-68
2023/06/07 15:47:33;;;;;;;3.75;3.45;;;;;;;;;;10107094;28;20052;-68
2023/06/07 15:52:27;;;;;;;6.53;3.90;;;;;;;;;;10112547;28;20055;-68
2023/06/07 15:57:20;;;;;;;3.83;3.53;;;;;;;;;;10109454;28;20053;-68
2023/06/07 16:02:15;;;;;;;4.28;3.65;;;;;;;;;;10108109;28;20110;-67
2023/06/07 16:07:10;;;;;;;4.50;2.92;;;;;;;;;;10104489;28;20598;-71
2023/06/07 16:12:03;;;;;;;6.20;4.07;;;;;;;;;;10113341;28;20091;-65
2023/06/07 16:16:57;;;;;;;4.38;3.97;;;;;;;;;;10109744;28;20052;-66
2023/06/07 16:21:50;;;;;;;4.63;4.22;;;;;;;;;;10101579;28;20049;-64
2023/06/07 16:26:44;;;;;;;5.38;4.05;;;;;;;;;;10103508;28;20507;-71
2023/06/07 16:31:39;;;;;;;8.65;3.90;;;;;;;;;;10110564;28;20053;-70
2023/06/07 16:36:36;;;;;;;5.03;4.53;;;;;;;;;;10116824;28;20048;-69
2023/06/07 16:41:29;;;;;;;4.82;4.43;;;;;;;;;;10131668;28;20049;-69
2023/06/07 16:46:23;;;;;;;6.03;5.43;;;;;;;;;;10139429;28;20499;-67
2023/06/07 16:51:17;;;;;;;4.75;4.35;;;;;;;;;;10138306;28;20076;-68
2023/06/07 16:56:10;;;;;;;7.25;5.85;;;;;;;;;;10126223;28;20057;-68
2023/06/07 17:01:03;;;;;;;6.82;6.03;;;;;;;;;;10142548;28;20045;-67
2023/06/07 17:05:56;;;;;;;7.70;7.00;;;;;;;;;;10143857;28;20049;-67
2023/06/07 17:10:50;;;;;;;7.90;5.18;;;;;;;;;;10143646;28;20422;-67
2023/06/07 17:15:43;;;;;;;5.28;4.78;;;;;;;;;;10133652;28;20499;-68
2023/06/07 17:20:37;;;;;;;4.65;3.92;;;;;;;;;;10145148;28;20143;-68
2023/06/07 17:25:30;;;;;;;6.20;5.10;;;;;;;;;;10132421;28;20128;-68
2023/06/07 17:30:25;;;;;;;5.65;4.88;;;;;;;;;;10144387;28;20048;-66
2023/06/07 17:35:21;;;;;;;4.90;4.43;;;;;;;;;;10116986;28;20072;-65
2023/06/07 17:40:14;;;;;;;7.15;4.78;;;;;;;;;;10139776;28;20057;-66
2023/06/07 17:45:08;;;;;;;4.55;4.15;;;;;;;;;;10142235;28;20048;-67
2023/06/07 17:50:02;;;;;;;5.15;4.72;;;;;;;;;;10117237;28;20521;-67
2023/06/07 17:54:55;;;;;;;6.93;4.82;;;;;;;;;;10140178;28;20491;-67
2023/06/07 17:59:48;;;;;;;7.25;5.50;;;;;;;;;;10135224;28;20056;-68
2023/06/07 18:04:42;;;;;;;6.10;5.20;;;;;;;;;;10132020;28;20504;-67
2023/06/07 18:09:37;;;;;;;6.32;5.35;;;;;;;;;;10136378;28;20529;-66
2023/06/07 18:14:31;;;;;;;5.55;5.03;;;;;;;;;;10108958;28;20094;-66
2023/06/07 18:19:25;;;;;;;6.40;4.97;;;;;;;;;;10135467;28;20056;-67
2023/06/07 18:24:19;;;;;;;6.68;5.97;;;;;;;;;;10121183;28;20484;-67
2023/06/07 18:29:13;;;;;;;9.05;6.25;;;;;;;;;;10122879;28;20408;-67
2023/06/07 18:34:06;;;;;;;7.38;6.28;;;;;;;;;;10119642;28;20045;-67
2023/06/07 18:38:59;;;;;;;7.90;5.85;;;;;;;;;;10115293;28;20128;-68
2023/06/07 18:43:53;;;;;;;9.30;6.10;;;;;;;;;;10122384;28;20076;-68
2023/06/07 18:48:46;;;;;;;6.60;6.00;;;;;;;;;;10126238;28;20369;-67
2023/06/07 18:53:40;;;;;;;7.82;6.28;;;;;;;;;;10118317;28;20061;-67
2023/06/07 18:58:39;;;;;;;5.80;5.20;;;;;;;;;;10116437;28;20052;-67
2023/06/07 19:03:38;;;;;;;7.72;5.80;;;;;;;;;;10132090;28;20049;-67
2023/06/07 19:08:41;;;;;;;9.63;6.72;;;;;;;;;;10132048;28;20045;-67
2023/06/07 19:13:39;;;;;;;14.18;9.32;;;;;;;;;;10097144;28;20522;-69
2023/06/07 19:18:37;;;;;;;10.13;9.23;;;;;;;;;;10113529;28;20064;-69
2023/06/07 19:23:31;;;;;;;10.60;9.50;;;;;;;;;;10117127;28;20052;-67
2023/06/07 19:28:25;;;;;;;10.80;9.80;;;;;;;;;;10123180;28;20056;-68
2023/06/07 19:33:18;;;;;;;10.93;9.15;;;;;;;;;;10118289;28;20079;-67
2023/06/07 19:38:12;;;;;;;10.15;9.15;;;;;;;;;;10118178;28;20072;-67
2023/06/07 19:43:06;;;;;;;11.23;8.70;;;;;;;;;;10116755;28;20056;-67
2023/06/07 19:47:59;;;;;;;10.82;9.75;;;;;;;;;;10107802;28;20101;-67
2023/06/07 19:52:53;;;;;;;10.70;9.70;;;;;;;;;;10095028;28;20107;-67
2023/06/07 19:57:47;;;;;;;10.85;9.05;;;;;;;;;;10104864;28;20059;-67
2023/06/07 20:02:40;;;;;;;10.27;9.27;;;;;;;;;;10112530;28;20045;-67
2023/06/07 20:07:35;;;;;;;14.60;10.35;;;;;;;;;;10127001;28;20056;-67
2023/06/07 20:12:28;;;;;;;11.98;10.85;;;;;;;;;;10144590;28;20059;-67
2023/06/07 20:17:26;;;;;;;13.50;11.73;;;;;;;;;;10142532;28;20068;-67
2023/06/07 20:22:19;;;;;;;13.03;11.27;;;;;;;;;;10146279;28;20049;-67
2023/06/07 20:27:12;;;;;;;13.60;11.43;;;;;;;;;;10146700;28;20048;-67
2023/06/07 20:32:07;;;;;;;14.13;11.05;;;;;;;;;;10145462;28;20607;-67
2023/06/07 20:37:01;;;;;;;11.13;10.13;;;;;;;;;;10119345;28;20136;-67
2023/06/07 20:41:56;;;;;;;11.30;10.20;;;;;;;;;;10098432;28;20107;-67
2023/06/07 20:46:50;;;;;;;13.80;11.55;;;;;;;;;;10124121;28;20572;-67
2023/06/07 20:51:45;;;;;;;13.90;11.52;;;;;;;;;;10145458;28;20052;-66
2023/06/07 20:56:38;;;;;;;12.63;11.43;;;;;;;;;;10141236;28;20128;-67
2023/06/07 21:01:33;;;;;;;13.00;11.68;;;;;;;;;;10144020;28;20098;-67
2023/06/07 21:06:28;;;;;;;12.65;9.82;;;;;;;;;;10143963;28;20080;-67
2023/06/07 21:11:21;;;;;;;10.88;9.77;;;;;;;;;;10139708;28;20067;-67
2023/06/07 21:16:15;;;;;;;11.20;9.35;;;;;;;;;;10125748;28;20049;-67
2023/06/07 21:21:08;;;;;;;12.63;8.65;;;;;;;;;;10136110;28;20063;-67
2023/06/07 21:26:03;;;;;;;9.65;8.52;;;;;;;;;;10146132;28;20044;-67
2023/06/07 21:30:57;;;;;;;12.02;10.90;;;;;;;;;;10140561;28;20116;-67
2023/06/07 21:35:51;;;;;;;14.00;12.65;;;;;;;;;;10119966;28;20419;-67
2023/06/07 21:40:44;;;;;;;14.05;12.77;;;;;;;;;;10122598;28;20077;-67
2023/06/07 21:45:38;;;;;;;13.25;10.50;;;;;;;;;;10144869;28;20071;-67
2023/06/07 21:50:33;;;;;;;14.70;10.07;;;;;;;;;;10146164;28;20056;-66
2023/06/07 21:55:27;;;;;;;11.55;10.35;;;;;;;;;;10145140;28;20383;-67
2023/06/07 22:00:21;;;;;;;11.77;10.63;;;;;;;;;;10130842;28;20048;-66
2023/06/07 22:05:16;;;;;;;12.88;10.80;;;;;;;;;;10111418;28;20045;-70
2023/06/07 22:10:12;;;;;;;13.60;11.82;;;;;;;;;;10106451;28;20048;-71
2023/06/07 22:15:07;;;;;;;12.77;11.50;;;;;;;;;;10115255;28;20079;-69
2023/06/07 22:20:05;;;;;;;13.50;12.13;;;;;;;;;;10111125;28;20102;-67
2023/06/07 22:25:00;;;;;;;14.18;12.25;;;;;;;;;;10110428;28;20066;-67
2023/06/07 22:29:55;;;;;;;14.48;12.85;;;;;;;;;;10106261;28;20048;-67
2023/06/07 22:34:48;;;;;;;17.77;12.95;;;;;;;;;;10106870;28;20061;-68
2023/06/07 22:39:43;;;;;;;14.70;12.80;;;;;;;;;;10104357;28;20049;-67
2023/06/07 22:44:37;;;;;;;15.55;13.65;;;;;;;;;;10102314;28;20057;-70
2023/06/07 22:49:32;;;;;;;17.48;14.23;;;;;;;;;;10091812;28;20136;-70
2023/06/07 22:54:29;;;;;;;16.00;14.35;;;;;;;;;;10092046;28;20053;-67
2023/06/07 22:59:22;;;;;;;15.73;14.05;;;;;;;;;;10102784;28;20057;-68
2023/06/07 23:04:18;;;;;;;17.52;15.57;;;;;;;;;;10116582;28;20048;-67
2023/06/07 23:09:12;;;;;;;18.55;15.13;;;;;;;;;;10112795;28;20062;-71
2023/06/07 23:14:06;;;;;;;17.27;15.35;;;;;;;;;;10119316;28;20059;-67
2023/06/07 23:19:03;;;;;;;18.92;15.85;;;;;;;;;;10114205;28;20538;-67
2023/06/07 23:23:57;;;;;;;21.95;15.35;;;;;;;;;;10115551;28;20049;-67
2023/06/07 23:28:51;;;;;;;16.15;14.40;;;;;;;;;;10124786;28;20049;-66
2023/06/07 23:33:46;;;;;;;19.70;15.27;;;;;;;;;;10112099;28;20553;-66
2023/06/07 23:38:40;;;;;;;17.05;15.43;;;;;;;;;;10149183;28;20053;-68
2023/06/07 23:43:34;;;;;;;18.63;16.77;;;;;;;;;;10149685;28;20041;-67
2023/06/07 23:48:29;;;;;;;17.80;16.05;;;;;;;;;;10150904;28;20079;-67
2023/06/07 23:53:22;;;;;;;25.17;16.10;;;;;;;;;;10150794;28;20053;-68
2023/06/07 23:58:15;;;;;;;17.05;15.27;;;;;;;;;;10150285;28;20110;-69
